createdAt,value
2023-03-29T00:01:10.010Z,2.67
2023-03-29T00:03:59.766Z,3.03
2023-03-29T00:06:50.514Z,3.00
2023-03-29T00:09:38.895Z,3.00
2023-03-29T00:12:27.044Z,2.90
2023-03-29T00:15:15.899Z,2.60
2023-03-29T00:18:03.980Z,2.77
2023-03-29T00:20:56.383Z,2.80
2023-03-29T00:23:45.793Z,2.90
2023-03-29T00:26:33.882Z,2.63
2023-03-29T00:29:21.899Z,2.70
2023-03-29T00:32:10.178Z,2.93
2023-03-29T00:34:58.532Z,3.25
2023-03-29T00:37:47.129Z,4.07
2023-03-29T00:40:42.862Z,2.80
2023-03-29T00:43:31.241Z,3.00
2023-03-29T00:46:19.394Z,3.07
2023-03-29T00:49:12.945Z,2.72
2023-03-29T00:52:01.003Z,2.83
2023-03-29T00:54:54.669Z,3.17
2023-03-29T00:57:46.613Z,3.42
2023-03-29T01:00:39.743Z,3.30
2023-03-29T01:03:33.019Z,2.80
2023-03-29T01:06:26.019Z,3.40
2023-03-29T01:09:17.235Z,3.20
2023-03-29T01:12:11.481Z,3.53
2023-03-29T01:15:04.451Z,3.10
2023-03-29T01:17:53.859Z,3.15
2023-03-29T01:21:03.126Z,3.40
2023-03-29T01:24:25.025Z,3.58
2023-03-29T01:27:18.192Z,3.42
2023-03-29T01:30:14.165Z,3.70
2023-03-29T01:33:07.438Z,3.25
2023-03-29T01:35:58.699Z,3.80
2023-03-29T01:38:51.641Z,3.03
2023-03-29T01:41:49.249Z,4.15
2023-03-29T01:44:48.323Z,3.57
2023-03-29T01:47:45.599Z,3.58
2023-03-29T01:50:42.818Z,3.72
2023-03-29T01:53:36.160Z,3.80
2023-03-29T01:56:27.982Z,3.70
2023-03-29T01:59:20.310Z,3.97
2023-03-29T02:02:12.321Z,3.67
2023-03-29T02:05:02.357Z,3.70
2023-03-29T02:07:51.656Z,3.78
2023-03-29T02:10:40.119Z,4.20
2023-03-29T02:13:28.259Z,3.73
2023-03-29T02:16:16.985Z,3.55
2023-03-29T02:19:07.770Z,3.70
2023-03-29T02:22:04.622Z,3.70
2023-03-29T02:24:59.198Z,3.60
2023-03-29T02:27:47.532Z,3.53
2023-03-29T02:30:41.955Z,3.80
2023-03-29T02:33:39.125Z,3.63
2023-03-29T02:36:32.079Z,4.07
2023-03-29T02:39:25.356Z,3.83
2023-03-29T02:42:14.647Z,4.00
2023-03-29T02:45:04.898Z,3.78
2023-03-29T02:47:56.667Z,3.67
2023-03-29T02:50:48.312Z,3.97
2023-03-29T02:53:42.322Z,3.90
2023-03-29T02:56:31.706Z,4.00
2023-03-29T02:59:20.625Z,3.83
2023-03-29T03:02:08.811Z,4.15
2023-03-29T03:04:57.557Z,3.83
2023-03-29T03:07:46.196Z,4.10
2023-03-29T03:10:34.764Z,3.70
2023-03-29T03:13:24.258Z,3.97
2023-03-29T03:16:12.346Z,4.25
2023-03-29T03:19:01.016Z,3.40
2023-03-29T03:21:49.331Z,3.90
2023-03-29T03:24:37.390Z,3.50
2023-03-29T03:27:25.435Z,4.25
2023-03-29T03:30:16.072Z,3.65
2023-03-29T03:33:04.103Z,4.60
2023-03-29T03:35:52.811Z,3.38
2023-03-29T03:38:41.298Z,3.93
2023-03-29T03:41:29.339Z,4.45
2023-03-29T03:44:17.369Z,3.80
2023-03-29T03:47:07.887Z,4.22
2023-03-29T03:49:55.886Z,3.45
2023-03-29T03:52:44.313Z,4.20
2023-03-29T03:55:33.400Z,4.10
2023-03-29T03:58:21.664Z,4.03
2023-03-29T04:01:09.981Z,4.70
2023-03-29T04:03:59.423Z,4.45
2023-03-29T04:06:47.571Z,4.50
2023-03-29T04:09:36.316Z,4.90
2023-03-29T04:12:24.333Z,4.10
2023-03-29T04:15:12.672Z,4.55
2023-03-29T04:18:01.526Z,4.25
2023-03-29T04:20:51.507Z,4.00
2023-03-29T04:23:39.644Z,4.53
2023-03-29T04:26:27.622Z,4.10
2023-03-29T04:29:15.895Z,4.18
2023-03-29T04:32:03.927Z,4.28
2023-03-29T04:34:52.026Z,4.47
2023-03-29T04:37:41.926Z,4.13
2023-03-29T04:40:30.784Z,4.68
2023-03-29T04:43:18.795Z,4.28
2023-03-29T04:46:07.871Z,4.35
2023-03-29T04:48:55.955Z,3.87
2023-03-29T04:51:44.180Z,4.25
2023-03-29T04:54:33.591Z,4.45
2023-03-29T04:57:21.690Z,4.80
2023-03-29T05:00:15.254Z,4.30
2023-03-29T05:03:04.465Z,3.97
2023-03-29T05:05:52.710Z,4.78
2023-03-29T05:08:41.504Z,4.70
2023-03-29T05:11:31.693Z,4.45
2023-03-29T05:14:19.821Z,4.90
2023-03-29T05:17:08.090Z,4.67
2023-03-29T05:19:56.235Z,3.88
2023-03-29T05:22:47.113Z,4.20
2023-03-29T05:25:35.141Z,4.10
2023-03-29T05:28:24.687Z,5.28
2023-03-29T05:31:16.161Z,4.70
2023-03-29T05:34:07.030Z,4.53
2023-03-29T05:36:59.187Z,4.60
2023-03-29T05:39:48.960Z,4.82
2023-03-29T05:43:20.483Z,4.43
2023-03-29T05:46:10.420Z,4.17
2023-03-29T05:48:59.312Z,5.05
2023-03-29T05:51:47.381Z,4.30
2023-03-29T05:54:35.359Z,4.90
2023-03-29T05:57:23.975Z,4.85
2023-03-29T06:00:20.152Z,5.00
2023-03-29T06:03:21.555Z,4.32
2023-03-29T06:06:10.974Z,4.35
2023-03-29T06:08:59.150Z,4.60
2023-03-29T06:11:47.699Z,4.57
2023-03-29T06:14:36.384Z,4.93
2023-03-29T06:17:24.455Z,5.22
2023-03-29T06:20:15.008Z,5.03
2023-03-29T06:23:03.099Z,4.72
2023-03-29T06:25:51.666Z,4.88
2023-03-29T06:28:39.714Z,4.83
2023-03-29T06:31:27.892Z,4.88
2023-03-29T06:34:16.478Z,5.35
2023-03-29T06:37:05.917Z,4.97
2023-03-29T06:39:54.679Z,5.03
2023-03-29T06:42:42.949Z,5.30
2023-03-29T06:45:34.439Z,5.05
2023-03-29T06:49:01.656Z,4.75
2023-03-29T06:51:49.887Z,5.07
2023-03-29T06:54:39.305Z,5.38
2023-03-29T06:57:27.428Z,5.27
2023-03-29T07:00:18.317Z,5.30
2023-03-29T07:03:09.846Z,5.10
2023-03-29T07:06:03.578Z,5.55
2023-03-29T07:08:52.461Z,5.45
2023-03-29T07:11:41.907Z,5.77
2023-03-29T07:14:30.928Z,5.10
2023-03-29T07:17:19.033Z,5.72
2023-03-29T07:20:13.601Z,5.45
2023-03-29T07:23:02.165Z,5.70
2023-03-29T07:25:50.447Z,5.00
2023-03-29T07:28:40.246Z,5.65
2023-03-29T07:31:29.550Z,5.78
2023-03-29T07:34:17.885Z,6.20
2023-03-29T07:37:07.084Z,5.90
2023-03-29T07:39:55.222Z,6.10
2023-03-29T07:42:43.927Z,6.43
2023-03-29T07:45:33.367Z,6.28
2023-03-29T07:48:22.236Z,5.90
2023-03-29T07:51:10.712Z,6.43
2023-03-29T07:53:59.786Z,6.40
2023-03-29T07:56:49.591Z,6.55
2023-03-29T07:59:37.745Z,5.43
2023-03-29T08:02:29.137Z,6.22
2023-03-29T08:05:26.156Z,6.70
2023-03-29T08:08:22.015Z,6.70
2023-03-29T08:11:10.140Z,6.63
2023-03-29T08:13:59.025Z,6.45
2023-03-29T08:16:47.004Z,7.15
2023-03-29T08:19:36.428Z,7.18
2023-03-29T08:22:24.756Z,7.50
2023-03-29T08:25:12.950Z,7.22
2023-03-29T08:28:00.986Z,7.68
2023-03-29T08:30:49.762Z,6.93
2023-03-29T08:33:38.137Z,7.43
2023-03-29T08:36:27.632Z,7.23
2023-03-29T08:39:16.784Z,7.60
2023-03-29T08:42:23.713Z,7.28
2023-03-29T08:45:20.938Z,8.18
2023-03-29T08:48:22.577Z,7.95
2023-03-29T08:51:21.520Z,7.40
2023-03-29T08:54:16.783Z,7.25
2023-03-29T08:57:11.232Z,7.50
2023-03-29T09:00:02.295Z,6.60
2023-03-29T09:02:54.354Z,7.50
2023-03-29T09:05:47.381Z,7.10
2023-03-29T09:08:41.104Z,6.97
2023-03-29T09:11:42.652Z,6.50
2023-03-29T09:14:53.463Z,6.65
2023-03-29T09:17:53.579Z,6.85
2023-03-29T09:20:51.244Z,6.23
2023-03-29T09:24:04.301Z,7.47
2023-03-29T09:26:58.393Z,6.65
2023-03-29T09:29:59.384Z,7.43
2023-03-29T09:32:52.789Z,6.63
2023-03-29T09:35:46.113Z,5.90
2023-03-29T09:38:38.299Z,6.05
2023-03-29T09:41:31.758Z,7.18
2023-03-29T09:44:31.242Z,7.43
2023-03-29T09:47:24.815Z,6.93
2023-03-29T09:50:29.688Z,6.20
2023-03-29T09:53:20.338Z,6.22
2023-03-29T09:56:11.580Z,6.25
2023-03-29T09:58:59.547Z,6.68
2023-03-29T10:01:49.157Z,6.47
2023-03-29T10:04:38.530Z,6.60
2023-03-29T10:07:37.337Z,6.18
2023-03-29T10:10:29.528Z,6.40
2023-03-29T10:13:23.604Z,6.43
2023-03-29T10:16:22.027Z,6.40
2023-03-29T10:19:21.189Z,6.47
2023-03-29T10:22:18.806Z,6.45
2023-03-29T10:25:14.344Z,6.47
2023-03-29T10:28:11.940Z,6.68
2023-03-29T10:31:03.744Z,6.03
2023-03-29T10:33:54.278Z,6.60
2023-03-29T10:36:48.210Z,6.22
2023-03-29T10:39:36.630Z,6.57
2023-03-29T10:42:26.612Z,7.00
2023-03-29T10:45:21.676Z,6.72
2023-03-29T10:48:13.710Z,8.17
2023-03-29T10:51:05.582Z,8.38
2023-03-29T10:53:55.061Z,8.30
2023-03-29T10:56:46.631Z,7.40
2023-03-29T10:59:41.993Z,7.63
2023-03-29T11:02:49.368Z,8.00
2023-03-29T11:05:43.898Z,7.30
2023-03-29T11:08:49.759Z,6.82
2023-03-29T11:12:14.507Z,7.28
2023-03-29T11:15:22.585Z,7.18
2023-03-29T11:18:31.532Z,7.20
2023-03-29T11:21:31.342Z,6.82
2023-03-29T11:24:43.385Z,7.68
2023-03-29T11:27:41.014Z,7.85
2023-03-29T11:30:34.166Z,8.38
2023-03-29T11:33:38.183Z,8.70
2023-03-29T11:36:32.935Z,8.05
2023-03-29T11:39:30.860Z,8.15
2023-03-29T11:42:24.332Z,7.65
2023-03-29T11:45:19.650Z,7.65
2023-03-29T11:48:16.689Z,7.37
2023-03-29T11:51:11.262Z,7.45
2023-03-29T11:54:04.928Z,7.00
2023-03-29T11:56:58.412Z,6.55
2023-03-29T11:59:54.259Z,7.32
2023-03-29T12:02:47.906Z,6.87
2023-03-29T12:05:42.902Z,6.38
2023-03-29T12:08:35.912Z,5.88
2023-03-29T12:11:30.016Z,5.55
2023-03-29T12:14:25.392Z,5.07
2023-03-29T12:17:20.744Z,4.53
2023-03-29T12:20:19.051Z,5.00
2023-03-29T12:23:08.379Z,5.88
2023-03-29T12:26:05.352Z,5.22
2023-03-29T12:29:14.138Z,5.60
2023-03-29T12:32:28.439Z,5.43
2023-03-29T12:35:31.964Z,6.20
2023-03-29T12:38:23.520Z,6.25
2023-03-29T12:41:19.072Z,6.43
2023-03-29T12:44:08.979Z,6.10
2023-03-29T12:47:00.990Z,6.60
2023-03-29T12:49:55.329Z,5.97
2023-03-29T12:52:44.699Z,6.20
2023-03-29T12:55:36.085Z,6.70
2023-03-29T12:58:43.435Z,6.38
2023-03-29T13:01:33.121Z,6.43
2023-03-29T13:04:37.585Z,6.18
2023-03-29T13:07:44.576Z,5.82
2023-03-29T13:10:42.947Z,4.88
2023-03-29T13:13:34.867Z,4.80
2023-03-29T13:16:31.267Z,5.00
2023-03-29T13:19:31.053Z,4.70
2023-03-29T13:22:31.614Z,4.88
2023-03-29T13:29:53.078Z,4.60
2023-03-29T13:32:50.279Z,4.60
2023-03-29T13:35:50.699Z,4.25
2023-03-29T13:38:47.040Z,4.38
2023-03-29T13:41:48.823Z,4.90
2023-03-29T13:44:44.449Z,5.03
2023-03-29T13:47:48.966Z,5.77
2023-03-29T13:50:54.462Z,6.68
2023-03-29T13:53:49.231Z,6.90
2023-03-29T13:56:45.868Z,7.15
2023-03-29T13:59:44.025Z,7.25
2023-03-29T14:02:37.906Z,7.20
2023-03-29T14:05:32.763Z,6.88
2023-03-29T14:08:24.961Z,6.90
2023-03-29T14:11:23.042Z,6.68
2023-03-29T14:14:12.414Z,7.15
2023-03-29T14:17:01.808Z,7.13
2023-03-29T14:19:50.476Z,6.90
2023-03-29T14:22:42.972Z,7.10
2023-03-29T14:25:35.179Z,8.20
2023-03-29T14:28:25.030Z,7.25
2023-03-29T14:31:19.282Z,8.33
2023-03-29T14:34:12.786Z,7.80
2023-03-29T14:37:00.815Z,8.00
2023-03-29T14:39:50.750Z,7.40
2023-03-29T14:42:41.852Z,7.47
2023-03-29T14:45:30.256Z,7.53
2023-03-29T14:48:19.183Z,7.05
2023-03-29T14:51:07.678Z,7.32
2023-03-29T14:53:56.726Z,6.38
2023-03-29T14:56:48.558Z,6.93
2023-03-29T14:59:39.689Z,6.90
2023-03-29T15:02:29.837Z,7.07
2023-03-29T15:05:27.142Z,7.22
2023-03-29T15:08:18.983Z,7.07
2023-03-29T15:11:15.522Z,6.72
2023-03-29T15:14:07.431Z,6.77
2023-03-29T15:17:02.721Z,6.60
2023-03-29T15:19:52.754Z,6.70
2023-03-29T15:22:52.903Z,6.10
2023-03-29T15:25:50.475Z,5.72
2023-03-29T15:28:49.750Z,6.07
2023-03-29T15:31:41.233Z,5.53
2023-03-29T15:34:31.289Z,5.85
2023-03-29T15:37:19.365Z,5.57
2023-03-29T15:40:09.875Z,5.50
2023-03-29T15:42:58.505Z,5.50
2023-03-29T15:45:47.830Z,5.57
2023-03-29T15:48:37.796Z,5.60
2023-03-29T15:51:26.051Z,5.13
2023-03-29T15:54:14.128Z,5.15
2023-03-29T15:57:06.365Z,5.07
2023-03-29T15:59:54.518Z,4.90
2023-03-29T16:02:43.138Z,5.63
2023-03-29T16:05:34.905Z,4.93
2023-03-29T16:08:26.422Z,4.60
2023-03-29T16:11:14.497Z,4.47
2023-03-29T16:14:02.900Z,4.60
2023-03-29T16:16:53.666Z,4.65
2023-03-29T16:19:41.816Z,4.60
2023-03-29T16:22:32.262Z,4.07
2023-03-29T16:25:22.749Z,3.90
2023-03-29T16:28:10.978Z,3.75
2023-03-29T16:30:59.189Z,3.70
2023-03-29T16:33:47.407Z,3.67
2023-03-29T16:36:35.449Z,4.25
2023-03-29T16:39:24.811Z,4.27
2023-03-29T16:42:12.883Z,4.03
2023-03-29T16:45:02.213Z,3.92
2023-03-29T16:47:51.320Z,4.15
2023-03-29T16:50:48.606Z,3.88
2023-03-29T16:53:36.635Z,4.10
2023-03-29T16:56:27.691Z,4.40
2023-03-29T16:59:16.693Z,4.18
2023-03-29T17:02:04.810Z,4.00
2023-03-29T17:04:53.240Z,4.28
2023-03-29T17:07:43.104Z,4.50
2023-03-29T17:10:31.678Z,4.40
2023-03-29T17:13:22.079Z,4.60
2023-03-29T17:16:10.263Z,4.70
2023-03-29T17:19:00.155Z,4.78
2023-03-29T17:21:48.488Z,4.90
2023-03-29T17:24:36.546Z,5.20
2023-03-29T17:27:24.676Z,4.85
2023-03-29T17:30:14.895Z,5.10
2023-03-29T17:33:03.321Z,4.68
2023-03-29T17:35:51.392Z,4.57
2023-03-29T17:38:39.580Z,5.07
2023-03-29T17:41:30.864Z,5.00
2023-03-29T17:44:19.240Z,5.03
2023-03-29T17:47:09.059Z,5.00
2023-03-29T17:50:04.324Z,5.10
2023-03-29T17:52:52.454Z,5.00
2023-03-29T17:55:40.902Z,4.70
2023-03-29T17:58:28.911Z,4.57
2023-03-29T18:01:21.315Z,5.07
2023-03-29T18:04:11.341Z,4.97
2023-03-29T18:07:00.159Z,5.15
2023-03-29T18:09:48.278Z,5.38
2023-03-29T18:12:36.709Z,5.25
2023-03-29T18:15:24.840Z,5.47
2023-03-29T18:18:12.921Z,5.70
2023-03-29T18:21:02.769Z,5.75
2023-03-29T18:23:52.846Z,6.45
2023-03-29T18:26:41.872Z,5.93
2023-03-29T18:29:29.948Z,5.80
2023-03-29T18:32:18.199Z,5.97
2023-03-29T18:35:07.209Z,5.30
2023-03-29T18:37:56.817Z,5.72
2023-03-29T18:40:44.926Z,5.45
2023-03-29T18:43:34.317Z,5.78
2023-03-29T18:46:22.442Z,5.67
2023-03-29T18:49:13.110Z,5.78
2023-03-29T18:52:02.117Z,5.85
2023-03-29T18:54:51.542Z,6.22
2023-03-29T18:57:39.587Z,5.70
2023-03-29T19:00:27.598Z,5.53
2023-03-29T19:03:15.661Z,5.18
2023-03-29T19:06:04.707Z,5.70
2023-03-29T19:08:53.983Z,5.22
2023-03-29T19:11:43.573Z,5.75
2023-03-29T19:14:32.208Z,5.10
2023-03-29T19:17:21.095Z,5.22
2023-03-29T19:20:10.425Z,5.05
2023-03-29T19:22:58.462Z,4.80
2023-03-29T19:25:52.802Z,5.00
2023-03-29T19:28:42.282Z,5.17
2023-03-29T19:31:31.812Z,4.80
2023-03-29T19:34:22.861Z,5.38
2023-03-29T19:37:10.990Z,5.30
2023-03-29T19:39:58.954Z,5.38
2023-03-29T19:42:48.160Z,4.97
2023-03-29T19:45:38.365Z,5.07
2023-03-29T19:48:26.629Z,5.15
2023-03-29T19:51:14.777Z,5.18
2023-03-29T19:54:02.764Z,5.45
2023-03-29T19:56:52.557Z,5.10
2023-03-29T19:59:42.931Z,5.25
2023-03-29T20:02:32.541Z,4.32
2023-03-29T20:05:21.613Z,4.20
2023-03-29T20:08:10.555Z,3.97
2023-03-29T20:10:59.598Z,4.10
2023-03-29T20:13:47.885Z,4.10
2023-03-29T20:16:36.035Z,4.13
2023-03-29T20:19:26.820Z,4.25
2023-03-29T20:22:15.044Z,4.00
2023-03-29T20:25:03.791Z,3.87
2023-03-29T20:27:53.083Z,4.00
2023-03-29T20:30:42.541Z,4.20
2023-03-29T20:33:30.622Z,4.50
2023-03-29T20:36:23.070Z,4.38
2023-03-29T20:39:12.006Z,4.10
2023-03-29T20:42:00.564Z,4.05
2023-03-29T20:44:50.581Z,4.60
2023-03-29T20:47:42.405Z,4.10
2023-03-29T20:50:30.986Z,4.07
2023-03-29T20:53:21.355Z,4.30
2023-03-29T20:56:09.552Z,4.03
2023-03-29T20:58:58.798Z,4.45
2023-03-29T21:01:47.134Z,4.68
2023-03-29T21:04:36.074Z,4.00
2023-03-29T21:07:24.256Z,3.70
2023-03-29T21:10:13.904Z,3.85
2023-03-29T21:13:02.586Z,4.03
2023-03-29T21:15:51.152Z,3.78
2023-03-29T21:18:40.059Z,3.60
2023-03-29T21:21:30.113Z,3.40
2023-03-29T21:24:18.509Z,3.70
2023-03-29T21:27:08.206Z,3.33
2023-03-29T21:29:56.228Z,3.10
2023-03-29T21:32:44.640Z,3.00
2023-03-29T21:35:34.036Z,3.00
2023-03-29T21:38:22.172Z,2.88
2023-03-29T21:41:12.116Z,2.75
2023-03-29T21:44:01.618Z,3.10
2023-03-29T21:46:49.732Z,3.13
2023-03-29T21:49:38.386Z,3.07
2023-03-29T21:52:26.441Z,2.97
2023-03-29T21:55:14.593Z,3.20
2023-03-29T21:58:02.694Z,3.50
2023-03-29T22:00:52.149Z,3.50
2023-03-29T22:03:40.311Z,3.20
2023-03-29T22:06:28.371Z,3.45
2023-03-29T22:09:16.495Z,3.30
2023-03-29T22:12:05.526Z,3.22
2023-03-29T22:14:53.640Z,3.42
2023-03-29T22:17:43.206Z,3.60
2023-03-29T22:20:35.741Z,4.00
2023-03-29T22:23:24.845Z,4.13
2023-03-29T22:26:15.637Z,3.47
2023-03-29T22:29:04.325Z,3.75
2023-03-29T22:31:52.474Z,3.83
2023-03-29T22:34:41.938Z,3.70
2023-03-29T22:37:30.576Z,3.50
2023-03-29T22:40:18.669Z,3.92
2023-03-29T22:43:06.701Z,3.85
2023-03-29T22:45:54.840Z,3.97
2023-03-29T22:48:43.071Z,3.65
2023-03-29T22:51:32.858Z,3.90
2023-03-29T22:54:20.955Z,3.72
2023-03-29T22:57:09.006Z,4.00
2023-03-29T22:59:57.605Z,3.50
2023-03-29T23:02:46.031Z,3.65
2023-03-29T23:05:34.673Z,3.63
2023-03-29T23:08:24.577Z,3.10
2023-03-29T23:11:12.804Z,3.40
2023-03-29T23:14:04.008Z,3.17
2023-03-29T23:16:52.172Z,3.65
2023-03-29T23:19:40.290Z,3.47
2023-03-29T23:22:28.719Z,3.00
2023-03-29T23:25:21.190Z,2.92
2023-03-29T23:28:09.222Z,2.97
2023-03-29T23:31:00.242Z,2.67
2023-03-29T23:33:49.480Z,3.25
2023-03-29T23:36:37.765Z,2.92
2023-03-29T23:39:26.120Z,2.63
2023-03-29T23:42:15.835Z,2.57
2023-03-29T23:45:04.151Z,3.25
2023-03-29T23:47:52.411Z,1.98
2023-03-29T23:50:40.524Z,2.40
2023-03-29T23:53:29.729Z,2.20
2023-03-29T23:56:17.688Z,1.97
2023-03-29T23:59:07.620Z,2.10
